ESDF/RNB METAR and TAF weather

Enter ICAO airport designator
Station Type Date Time Source
ESDF METAR 2022/12/08 12:50 UTC NOAA

ESDF 081250Z 00000KT CAVOK M03/M04 Q1005


Station Type Date Time Source
ESDF Decoded METAR 2022/12/08 12:50 UTC NOAA

Ronneby, Sweden (ESDF) 56-16N 015-17E 74M
Dec 08, 2022 - 07:50 AM EST / 2022.12.08 1250 UTC
Wind: Calm:0
Visibility: greater than 7 mile(s):0
Temperature: 26 F (-3 C)
Dew Point: 24 F (-4 C)
Relative Humidity: 92%
Pressure (altimeter): 29.68 in. Hg (1005 hPa)
ob: ESDF 081250Z 00000KT CAVOK M03/M04 Q1005
cycle: 13

Station Type Date Time Source
ESDF TAF 2018/05/29 12:27 UTC NOAA

TAF TAF ESDF 291425Z 2912/2924 07008KT CAVOK
RMK MIL

Example: see airport list